createdAt,value
2022-10-29T00:02:00.387Z,2.10
2022-10-29T00:05:02.931Z,2.15
2022-10-29T00:08:05.737Z,2.13
2022-10-29T00:11:07.924Z,2.25
2022-10-29T00:14:10.435Z,2.10
2022-10-29T00:17:13.535Z,2.33
2022-10-29T00:20:16.375Z,1.90
2022-10-29T00:23:18.899Z,2.15
2022-10-29T00:26:21.148Z,2.10
2022-10-29T00:29:23.877Z,2.03
2022-10-29T00:32:27.648Z,2.13
2022-10-29T00:35:30.914Z,2.13
2022-10-29T00:38:34.155Z,2.08
2022-10-29T00:41:36.558Z,1.67
2022-10-29T00:44:39.214Z,1.92
2022-10-29T00:47:42.180Z,2.42
2022-10-29T00:50:45.005Z,2.10
2022-10-29T00:53:47.729Z,2.20
2022-10-29T00:56:49.966Z,1.90
2022-10-29T00:59:52.558Z,2.10
2022-10-29T01:02:55.271Z,2.15
2022-10-29T01:05:57.602Z,1.73
2022-10-29T01:09:00.452Z,2.08
2022-10-29T01:12:02.776Z,1.83
2022-10-29T01:15:05.810Z,2.13
2022-10-29T01:18:08.754Z,2.03
2022-10-29T01:21:11.683Z,2.03
2022-10-29T01:24:14.240Z,2.00
2022-10-29T01:27:16.364Z,1.90
2022-10-29T01:30:19.243Z,2.15
2022-10-29T01:33:22.093Z,1.70
2022-10-29T01:36:24.357Z,1.90
2022-10-29T01:39:27.120Z,2.00
2022-10-29T01:42:29.744Z,1.73
2022-10-29T01:45:32.415Z,2.25
2022-10-29T01:48:34.865Z,2.00
2022-10-29T01:51:38.088Z,1.80
2022-10-29T01:54:40.983Z,1.92
2022-10-29T01:57:43.163Z,1.90
2022-10-29T02:00:45.901Z,1.90
2022-10-29T02:03:48.391Z,1.65
2022-10-29T02:06:51.784Z,1.90
2022-10-29T02:09:54.736Z,1.60
2022-10-29T02:12:57.864Z,1.90
2022-10-29T02:16:00.989Z,1.35
2022-10-29T02:19:07.452Z,1.80
2022-10-29T02:22:12.817Z,1.98
2022-10-29T02:25:15.483Z,1.70
2022-10-29T02:31:20.776Z,1.90
2022-10-29T02:34:23.728Z,1.55
2022-10-29T02:37:26.465Z,1.90
2022-10-29T02:40:28.863Z,1.77
2022-10-29T02:43:31.788Z,1.60
2022-10-29T02:46:34.530Z,1.70
2022-10-29T02:49:37.198Z,1.60
2022-10-29T02:52:40.366Z,1.70
2022-10-29T02:55:43.143Z,1.65
2022-10-29T02:58:45.822Z,1.80
2022-10-29T03:01:48.820Z,1.67
2022-10-29T03:04:51.490Z,1.60
2022-10-29T03:07:54.083Z,1.70
2022-10-29T03:10:56.225Z,1.60
2022-10-29T03:13:59.012Z,1.60
2022-10-29T03:17:01.481Z,1.65
2022-10-29T03:20:03.861Z,1.30
2022-10-29T03:23:06.793Z,1.40
2022-10-29T03:26:09.975Z,1.63
2022-10-29T03:29:12.823Z,1.40
2022-10-29T03:32:15.731Z,1.63
2022-10-29T03:35:18.757Z,1.70
2022-10-29T03:38:22.039Z,1.48
2022-10-29T03:41:24.905Z,1.70
2022-10-29T03:44:28.113Z,1.50
2022-10-29T03:47:30.591Z,1.58
2022-10-29T03:50:33.171Z,1.55
2022-10-29T03:53:35.569Z,1.40
2022-10-29T03:56:38.515Z,1.45
2022-10-29T03:59:41.384Z,1.63
2022-10-29T04:02:44.077Z,1.48
2022-10-29T04:05:47.145Z,1.30
2022-10-29T04:08:50.015Z,1.48
2022-10-29T04:11:52.485Z,1.50
2022-10-29T04:14:55.359Z,1.50
2022-10-29T04:17:58.716Z,1.73
2022-10-29T04:31:09.967Z,1.50
2022-10-29T04:34:12.831Z,1.20
2022-10-29T04:37:15.638Z,1.50
2022-10-29T04:40:17.760Z,1.20
2022-10-29T04:43:19.921Z,1.50
2022-10-29T04:46:22.427Z,1.38
2022-10-29T04:49:24.589Z,1.33
2022-10-29T04:52:27.158Z,1.52
2022-10-29T04:55:29.324Z,1.70
2022-10-29T04:58:32.066Z,1.42
2022-10-29T05:04:37.974Z,1.48
2022-10-29T05:07:40.548Z,1.40
2022-10-29T05:10:43.085Z,1.33
2022-10-29T05:13:46.209Z,1.45
2022-10-29T05:16:49.358Z,1.27
2022-10-29T05:19:52.511Z,1.30
2022-10-29T05:22:55.329Z,1.50
2022-10-29T05:25:57.803Z,1.50
2022-10-29T05:29:00.895Z,1.50
2022-10-29T05:32:04.569Z,1.50
2022-10-29T05:35:07.265Z,1.40
2022-10-29T05:38:10.371Z,1.30
2022-10-29T05:41:13.616Z,1.50
2022-10-29T05:44:16.470Z,1.55
2022-10-29T05:47:18.552Z,1.40
2022-10-29T05:50:21.103Z,1.50
2022-10-29T05:53:23.805Z,1.50
2022-10-29T05:56:26.586Z,1.55
2022-10-29T05:59:32.744Z,1.52
2022-10-29T06:02:36.277Z,1.48
2022-10-29T06:05:38.822Z,1.42
2022-10-29T06:08:40.930Z,1.40
2022-10-29T06:11:43.078Z,1.40
2022-10-29T06:14:45.682Z,1.40
2022-10-29T06:17:47.966Z,1.40
2022-10-29T06:20:50.187Z,1.75
2022-10-29T06:23:52.708Z,1.40
2022-10-29T06:26:55.889Z,1.40
2022-10-29T06:29:58.807Z,1.50
2022-10-29T06:33:01.749Z,1.42
2022-10-29T06:36:04.620Z,1.35
2022-10-29T06:39:07.147Z,1.38
2022-10-29T06:42:09.996Z,1.30
2022-10-29T06:45:12.244Z,1.48
2022-10-29T06:48:19.186Z,1.50
2022-10-29T06:51:24.180Z,1.30
2022-10-29T06:54:26.551Z,1.48
2022-10-29T06:57:28.737Z,1.50
2022-10-29T07:00:31.395Z,1.58
2022-10-29T07:03:33.974Z,1.52
2022-10-29T07:06:36.156Z,1.45
2022-10-29T07:09:39.059Z,1.40
2022-10-29T07:12:41.842Z,1.38
2022-10-29T07:15:44.068Z,1.40
2022-10-29T07:18:46.738Z,1.40
2022-10-29T07:21:49.318Z,1.70
2022-10-29T07:24:53.784Z,1.50
2022-10-29T07:27:59.476Z,1.35
2022-10-29T07:31:02.999Z,1.50
2022-10-29T07:34:05.798Z,1.60
2022-10-29T07:37:08.434Z,1.50
2022-10-29T07:40:10.922Z,1.30
2022-10-29T07:43:13.939Z,1.35
2022-10-29T07:46:16.558Z,1.40
2022-10-29T07:49:19.440Z,1.58
2022-10-29T07:52:22.106Z,1.60
2022-10-29T07:55:24.212Z,1.50
2022-10-29T07:58:26.824Z,1.60
2022-10-29T08:01:29.342Z,1.50
2022-10-29T08:04:32.254Z,1.27
2022-10-29T08:07:34.848Z,1.40
2022-10-29T08:10:37.327Z,1.70
2022-10-29T08:13:40.437Z,1.40
2022-10-29T08:16:43.698Z,1.30
2022-10-29T08:19:46.067Z,1.48
2022-10-29T08:22:48.658Z,1.45
2022-10-29T08:25:51.791Z,1.40
2022-10-29T08:28:54.830Z,1.60
2022-10-29T08:31:57.540Z,1.40
2022-10-29T08:35:00.191Z,1.42
2022-10-29T08:38:03.114Z,1.50
2022-10-29T08:41:05.958Z,1.50
2022-10-29T08:44:08.899Z,1.40
2022-10-29T08:47:11.462Z,1.55
2022-10-29T08:50:13.958Z,1.50
2022-10-29T08:53:23.153Z,1.60
2022-10-29T08:56:26.187Z,1.50
2022-10-29T08:59:29.492Z,1.42
2022-10-29T09:02:31.896Z,1.50
2022-10-29T09:05:34.794Z,1.50
2022-10-29T09:08:37.960Z,1.48
2022-10-29T09:11:40.792Z,1.30
2022-10-29T09:14:43.309Z,1.40
2022-10-29T09:17:45.716Z,1.48
2022-10-29T09:20:48.585Z,1.42
2022-10-29T09:23:51.938Z,1.80
2022-10-29T09:26:55.656Z,1.58
2022-10-29T09:29:58.524Z,1.63
2022-10-29T09:33:01.045Z,1.33
2022-10-29T09:36:03.866Z,1.50
2022-10-29T09:39:06.255Z,1.67
2022-10-29T09:42:08.644Z,1.58
2022-10-29T09:45:10.815Z,1.40
2022-10-29T09:48:13.330Z,1.50
2022-10-29T09:51:16.104Z,1.38
2022-10-29T09:54:18.252Z,1.48
2022-10-29T09:57:20.513Z,1.60
2022-10-29T10:00:23.060Z,1.60
2022-10-29T10:03:26.320Z,1.70
2022-10-29T10:06:29.228Z,1.42
2022-10-29T10:09:31.810Z,1.65
2022-10-29T10:12:34.743Z,1.80
2022-10-29T10:15:36.884Z,1.52
2022-10-29T10:18:39.440Z,1.63
2022-10-29T10:21:41.696Z,1.40
2022-10-29T10:24:43.851Z,1.50
2022-10-29T10:27:46.514Z,1.70
2022-10-29T10:30:49.115Z,1.65
2022-10-29T10:33:51.264Z,1.50
2022-10-29T10:36:53.882Z,1.88
2022-10-29T10:39:56.106Z,1.70
2022-10-29T10:42:58.732Z,1.45
2022-10-29T10:46:01.396Z,1.40
2022-10-29T10:49:04.027Z,1.67
2022-10-29T10:52:06.667Z,1.52
2022-10-29T10:55:09.657Z,1.45
2022-10-29T10:58:12.034Z,1.33
2022-10-29T11:01:14.996Z,1.80
2022-10-29T11:04:17.903Z,1.40
2022-10-29T11:07:20.586Z,1.60
2022-10-29T11:10:22.809Z,1.52
2022-10-29T11:13:25.414Z,1.60
2022-10-29T11:16:28.274Z,1.42
2022-10-29T11:19:32.753Z,1.45
2022-10-29T11:22:38.255Z,1.60
2022-10-29T11:25:41.390Z,1.60
2022-10-29T11:28:44.216Z,1.30
2022-10-29T11:31:47.130Z,1.48
2022-10-29T11:34:50.317Z,1.60
2022-10-29T11:37:53.379Z,1.60
2022-10-29T11:40:57.160Z,1.52
2022-10-29T11:44:00.046Z,1.40
2022-10-29T11:47:02.596Z,1.80
2022-10-29T11:50:05.239Z,1.40
2022-10-29T11:53:07.767Z,1.58
2022-10-29T11:56:10.175Z,1.77
2022-10-29T11:59:12.774Z,1.67
2022-10-29T12:02:15.375Z,1.50
2022-10-29T12:05:17.922Z,1.52
2022-10-29T12:08:20.810Z,1.45
2022-10-29T12:11:23.531Z,1.35
2022-10-29T12:14:26.453Z,1.67
2022-10-29T12:17:29.050Z,1.40
2022-10-29T12:20:32.176Z,1.67
2022-10-29T12:23:35.554Z,1.60
2022-10-29T12:26:38.484Z,1.38
2022-10-29T12:29:41.451Z,1.30
2022-10-29T12:32:44.360Z,2.00
2022-10-29T12:35:46.721Z,1.50
2022-10-29T12:38:49.633Z,1.50
2022-10-29T12:41:52.449Z,1.50
2022-10-29T12:44:55.040Z,1.52
2022-10-29T12:47:58.311Z,1.58
2022-10-29T12:51:01.388Z,1.52
2022-10-29T12:54:04.043Z,1.50
2022-10-29T12:57:06.682Z,1.63
2022-10-29T13:00:08.854Z,1.50
2022-10-29T13:03:11.161Z,1.40
2022-10-29T13:06:13.869Z,1.55
2022-10-29T13:09:17.012Z,1.60
2022-10-29T13:12:19.865Z,1.55
2022-10-29T13:15:22.488Z,1.50
2022-10-29T13:18:25.238Z,1.50
2022-10-29T13:21:28.569Z,1.38
2022-10-29T13:24:31.734Z,1.40
2022-10-29T13:27:35.517Z,1.60
2022-10-29T13:30:38.391Z,1.70
2022-10-29T13:33:41.064Z,1.75
2022-10-29T13:36:43.792Z,1.50
2022-10-29T13:39:46.395Z,1.65
2022-10-29T13:42:48.985Z,1.60
2022-10-29T13:45:51.983Z,1.50
2022-10-29T13:48:54.511Z,1.40
2022-10-29T13:51:57.271Z,1.40
2022-10-29T13:55:00.161Z,1.45
2022-10-29T13:58:03.284Z,1.50
2022-10-29T14:01:05.887Z,1.48
2022-10-29T14:04:08.508Z,1.45
2022-10-29T14:07:11.020Z,1.65
2022-10-29T14:10:14.473Z,1.40
2022-10-29T14:13:20.559Z,1.40
2022-10-29T14:16:25.539Z,1.50
2022-10-29T14:19:28.111Z,1.45
2022-10-29T14:22:31.386Z,1.70
2022-10-29T14:25:33.942Z,1.40
2022-10-29T14:28:36.501Z,1.40
2022-10-29T14:31:39.047Z,1.38
2022-10-29T14:34:41.231Z,1.30
2022-10-29T14:37:43.923Z,1.30
2022-10-29T14:40:46.937Z,1.55
2022-10-29T14:43:50.088Z,1.50
2022-10-29T14:46:52.570Z,1.35
2022-10-29T14:49:54.730Z,1.55
2022-10-29T14:52:57.818Z,1.50
2022-10-29T14:56:00.891Z,1.65
2022-10-29T14:59:03.581Z,1.42
2022-10-29T15:02:32.042Z,1.30
2022-10-29T15:05:28.475Z,1.40
2022-10-29T15:08:31.472Z,1.70
2022-10-29T15:11:34.304Z,1.50
2022-10-29T15:14:37.225Z,1.40
2022-10-29T15:17:39.716Z,1.38
2022-10-29T15:20:42.330Z,1.42
2022-10-29T15:23:46.138Z,1.52
2022-10-29T15:26:49.192Z,1.48
2022-10-29T15:29:51.972Z,1.50
2022-10-29T15:32:55.128Z,1.60
2022-10-29T15:35:58.576Z,1.60
2022-10-29T15:39:01.422Z,1.40
2022-10-29T15:42:04.101Z,1.50
2022-10-29T15:45:06.666Z,1.50
2022-10-29T15:48:09.933Z,1.58
2022-10-29T15:51:12.812Z,1.50
2022-10-29T15:54:15.353Z,1.40
2022-10-29T15:57:17.784Z,1.50
2022-10-29T16:00:20.553Z,1.50
2022-10-29T16:03:23.410Z,1.60
2022-10-29T16:06:26.021Z,1.60
2022-10-29T16:09:28.563Z,1.40
2022-10-29T16:12:31.504Z,1.30
2022-10-29T16:15:33.937Z,1.58
2022-10-29T16:18:36.075Z,1.50
2022-10-29T16:21:38.246Z,1.52
2022-10-29T16:24:40.442Z,1.48
2022-10-29T16:27:42.607Z,1.55
2022-10-29T16:30:45.187Z,1.77
2022-10-29T16:33:47.498Z,1.55
2022-10-29T16:36:50.129Z,1.60
2022-10-29T16:39:52.664Z,1.58
2022-10-29T16:42:55.943Z,1.73
2022-10-29T16:46:02.571Z,1.77
2022-10-29T16:52:09.829Z,1.63
2022-10-29T16:55:12.208Z,1.55
2022-10-29T16:58:15.139Z,1.50
2022-10-29T17:01:18.189Z,1.80
2022-10-29T17:04:21.368Z,1.80
2022-10-29T17:07:23.916Z,1.70
2022-10-29T17:10:26.129Z,1.80
2022-10-29T17:13:28.310Z,1.65
2022-10-29T17:16:31.237Z,1.88
2022-10-29T17:19:34.581Z,1.75
2022-10-29T17:22:40.363Z,1.70
2022-10-29T17:25:44.904Z,1.70
2022-10-29T17:28:47.505Z,1.95
2022-10-29T17:31:50.720Z,2.10
2022-10-29T17:34:53.604Z,2.20
2022-10-29T17:37:55.732Z,1.73
2022-10-29T17:40:57.893Z,1.70
2022-10-29T17:44:00.500Z,1.65
2022-10-29T17:47:03.545Z,1.70
2022-10-29T17:50:06.475Z,1.55
2022-10-29T17:53:09.158Z,1.80
2022-10-29T17:56:11.566Z,2.00
2022-10-29T17:59:14.242Z,1.75
2022-10-29T18:02:16.551Z,2.00
2022-10-29T18:05:19.209Z,1.77
2022-10-29T18:08:22.152Z,1.70
2022-10-29T18:11:25.047Z,1.70
2022-10-29T18:14:27.485Z,1.80
2022-10-29T18:17:30.451Z,1.75
2022-10-29T18:20:32.688Z,1.80
2022-10-29T18:23:36.125Z,2.03
2022-10-29T18:26:38.303Z,1.80
2022-10-29T18:29:40.927Z,1.70
2022-10-29T18:32:44.861Z,2.00
2022-10-29T18:35:47.760Z,1.98
2022-10-29T18:38:51.033Z,1.63
2022-10-29T18:41:54.729Z,1.80
2022-10-29T18:44:57.518Z,1.67
2022-10-29T18:48:00.149Z,1.85
2022-10-29T18:51:03.250Z,1.80
2022-10-29T18:54:06.296Z,1.88
2022-10-29T18:57:09.616Z,1.70
2022-10-29T19:00:13.341Z,2.00
2022-10-29T19:03:16.130Z,2.00
2022-10-29T19:06:18.974Z,1.85
2022-10-29T19:09:21.458Z,1.77
2022-10-29T19:12:24.150Z,1.80
2022-10-29T19:15:26.917Z,2.03
2022-10-29T19:18:30.125Z,1.83
2022-10-29T19:21:33.251Z,1.92
2022-10-29T19:24:36.059Z,1.75
2022-10-29T19:27:40.334Z,1.80
2022-10-29T19:30:43.260Z,2.28
2022-10-29T19:33:45.927Z,2.22
2022-10-29T19:36:48.482Z,1.83
2022-10-29T19:39:51.435Z,1.85
2022-10-29T19:42:53.829Z,2.10
2022-10-29T19:45:57.202Z,2.10
2022-10-29T19:49:00.398Z,2.00
2022-10-29T19:52:03.191Z,2.00
2022-10-29T19:55:05.671Z,1.98
2022-10-29T19:58:08.210Z,2.10
2022-10-29T20:01:11.016Z,2.08
2022-10-29T20:04:13.926Z,2.30
2022-10-29T20:07:16.311Z,2.00
2022-10-29T20:10:19.033Z,1.98
2022-10-29T20:13:21.930Z,1.92
2022-10-29T20:16:24.749Z,2.20
2022-10-29T20:19:26.963Z,2.10
2022-10-29T20:22:29.555Z,2.17
2022-10-29T20:25:32.112Z,1.95
2022-10-29T20:28:34.273Z,2.05
2022-10-29T20:31:41.158Z,2.03
2022-10-29T20:34:44.288Z,2.20
2022-10-29T20:37:47.271Z,2.03
2022-10-29T20:40:50.051Z,2.10
2022-10-29T20:43:52.586Z,2.28
2022-10-29T20:46:55.359Z,2.20
2022-10-29T20:49:58.236Z,2.10
2022-10-29T20:53:00.839Z,2.00
2022-10-29T20:56:03.416Z,2.20
2022-10-29T20:59:08.297Z,2.22
2022-10-29T21:02:11.750Z,2.10
2022-10-29T21:05:14.783Z,2.17
2022-10-29T21:08:17.408Z,1.83
2022-10-29T21:11:20.027Z,2.10
2022-10-29T21:14:23.140Z,2.03
2022-10-29T21:17:26.763Z,2.30
2022-10-29T21:20:29.910Z,2.17
2022-10-29T21:23:32.333Z,2.20
2022-10-29T21:26:34.906Z,2.28
2022-10-29T21:29:37.903Z,1.95
2022-10-29T21:32:40.758Z,1.90
2022-10-29T21:35:43.371Z,1.83
2022-10-29T21:38:46.239Z,1.75
2022-10-29T21:41:49.057Z,2.03
2022-10-29T21:44:51.208Z,2.03
2022-10-29T21:47:53.894Z,2.00
2022-10-29T21:50:57.269Z,2.20
2022-10-29T21:54:00.072Z,2.20
2022-10-29T21:57:02.932Z,2.10
2022-10-29T22:00:05.451Z,1.92
2022-10-29T22:03:07.411Z,2.13
2022-10-29T22:06:10.390Z,2.30
2022-10-29T22:09:12.812Z,2.20
2022-10-29T22:12:15.272Z,2.30
2022-10-29T22:15:18.083Z,2.20
2022-10-29T22:18:20.282Z,2.35
2022-10-29T22:21:22.705Z,2.10
2022-10-29T22:24:25.545Z,2.22
2022-10-29T22:27:27.668Z,2.20
2022-10-29T22:30:30.189Z,2.22
2022-10-29T22:33:33.152Z,2.20
2022-10-29T22:36:35.967Z,2.22
2022-10-29T22:39:38.537Z,2.22
2022-10-29T22:42:41.547Z,2.30
2022-10-29T22:45:44.354Z,2.13
2022-10-29T22:48:46.486Z,2.08
2022-10-29T22:51:49.080Z,2.20
2022-10-29T22:54:51.647Z,2.17
2022-10-29T22:57:53.750Z,2.58
2022-10-29T23:00:56.795Z,2.20
2022-10-29T23:03:59.607Z,2.60
2022-10-29T23:07:02.385Z,2.30
2022-10-29T23:10:04.652Z,2.30
2022-10-29T23:13:06.848Z,2.05
2022-10-29T23:16:09.454Z,2.30
2022-10-29T23:19:12.018Z,2.38
2022-10-29T23:25:16.626Z,2.30
2022-10-29T23:28:18.764Z,1.95
2022-10-29T23:31:20.844Z,2.20
2022-10-29T23:34:23.623Z,2.30
2022-10-29T23:37:26.320Z,2.35
2022-10-29T23:40:29.166Z,2.20
2022-10-29T23:43:32.003Z,2.50
2022-10-29T23:46:34.373Z,2.50
2022-10-29T23:49:36.574Z,2.40
2022-10-29T23:52:39.493Z,2.58
2022-10-29T23:55:42.663Z,2.28
2022-10-29T23:58:45.506Z,2.58
